createdAt,value
2023-03-05T15:44:24.681Z,100054.97
2023-03-05T15:49:27.811Z,100060.69
2023-03-05T15:54:31.515Z,100063.00
2023-03-05T15:59:36.036Z,100062.94
2023-03-05T16:04:39.294Z,100055.84
2023-03-05T16:09:45.580Z,100055.91
2023-03-05T16:14:52.210Z,100061.28
2023-03-05T16:19:57.074Z,100061.34
2023-03-05T16:25:01.399Z,100065.34
2023-03-05T16:30:07.237Z,100072.59
2023-03-05T16:35:12.057Z,100056.81
2023-03-05T16:40:15.894Z,100052.06
2023-03-05T16:45:20.619Z,100056.31
2023-03-05T16:50:23.809Z,100050.97
2023-03-05T16:55:26.964Z,100044.25
2023-03-05T17:00:31.651Z,100048.63
2023-03-05T17:05:37.184Z,100048.84
2023-03-05T17:10:40.353Z,100055.81
2023-03-05T17:15:44.917Z,100058.50
2023-03-05T17:20:48.108Z,100048.63
2023-03-05T17:25:51.781Z,100051.41
2023-03-05T17:31:00.162Z,100043.38
2023-03-05T17:36:04.005Z,100050.63
2023-03-05T17:41:07.194Z,100059.38
2023-03-05T17:46:13.003Z,100061.13
2023-03-05T17:51:17.544Z,100054.41
2023-03-05T17:56:22.279Z,100066.63
2023-03-05T18:01:29.197Z,100049.44
2023-03-05T18:06:32.847Z,100073.38
2023-03-05T18:11:36.009Z,100077.47
2023-03-05T18:16:40.589Z,100084.56
2023-03-05T18:21:44.326Z,100092.44
2023-03-05T18:26:47.435Z,100083.91
2023-03-05T18:31:52.017Z,100078.00
2023-03-05T18:36:55.436Z,100100.94
2023-03-05T18:41:58.701Z,100096.38
2023-03-05T18:47:03.253Z,100091.06
2023-03-05T18:52:06.708Z,100091.78
2023-03-05T18:57:09.865Z,100091.22
2023-03-05T19:02:16.886Z,100092.94
2023-03-05T19:07:20.113Z,100100.63
2023-03-05T19:12:25.001Z,100098.81
2023-03-05T19:17:30.501Z,100116.28
2023-03-05T19:22:34.150Z,100105.59
2023-03-05T19:27:37.591Z,100106.50
2023-03-05T19:32:42.166Z,100108.34
2023-03-05T19:37:46.103Z,100112.50
2023-03-05T19:42:49.309Z,100114.88
2023-03-05T19:47:53.884Z,100111.09
2023-03-05T19:52:57.035Z,100110.72
2023-03-05T19:58:00.195Z,100109.06
2023-03-05T20:03:04.907Z,100097.78
2023-03-05T20:08:08.053Z,100098.81
2023-03-05T20:13:11.225Z,100116.47
2023-03-05T20:18:15.779Z,100103.56
2023-03-05T20:23:18.940Z,100099.66
2023-03-05T20:28:26.054Z,100099.78
2023-03-05T20:33:30.967Z,100114.88
2023-03-05T20:38:34.196Z,100107.25
2023-03-05T20:43:40.945Z,100120.78
2023-03-05T20:48:46.021Z,100091.34
2023-03-05T20:53:49.610Z,100097.28
2023-03-05T20:58:52.770Z,100099.97
2023-03-05T21:03:58.406Z,100105.47
2023-03-05T21:09:02.255Z,100114.25
2023-03-05T21:14:05.428Z,100125.28
2023-03-05T21:19:09.954Z,100110.34
2023-03-05T21:24:13.084Z,100120.19
2023-03-05T21:29:16.246Z,100116.53
2023-03-05T21:34:20.796Z,100122.59
2023-03-05T21:39:23.955Z,100114.59
2023-03-05T21:44:27.087Z,100114.31
2023-03-05T21:49:31.729Z,100123.88
2023-03-05T21:54:34.871Z,100113.16
2023-03-05T21:59:41.285Z,100115.06
2023-03-05T22:04:46.066Z,100114.97
2023-03-05T22:09:49.240Z,100119.41
2023-03-05T22:14:52.368Z,100106.75
2023-03-05T22:19:56.900Z,100101.44
2023-03-05T22:25:00.113Z,100104.25
2023-03-05T22:30:03.639Z,100103.19
2023-03-05T22:35:12.606Z,100112.91
2023-03-05T22:40:17.951Z,100105.59
2023-03-05T22:45:21.171Z,100100.22
2023-03-05T22:50:25.720Z,100101.91
2023-03-05T22:55:28.885Z,100093.91
2023-03-05T23:00:32.117Z,100095.69
2023-03-05T23:05:39.098Z,100100.16
2023-03-05T23:10:42.265Z,100106.13
2023-03-05T23:15:45.463Z,100106.56
2023-03-05T23:20:50.062Z,100105.22
2023-03-05T23:25:54.082Z,100093.00
2023-03-05T23:30:58.861Z,100099.84
2023-03-05T23:36:03.610Z,100095.69
2023-03-05T23:41:09.655Z,100098.19
2023-03-05T23:46:13.592Z,100086.09
2023-03-05T23:51:19.205Z,100085.53
2023-03-05T23:56:22.354Z,100083.63
